• Join FlightAware (Why Join?)
  • Login
  • US Flag 
08:53PM EST


 

Airport Tracker/Info


-or-


 

Live Flight TrackerFlight Track Log ✈ N860BA ✈ 22-Aug-2013 ✈ YCTM / CMD - KLZU

Flight Track Log - Related Links

Times and Time Zones

All times are in EDT time to prevent confusion due to time zone crossing. See the N860BA flight status page for this flight to view local times or setup timezone preferences in your user account.

Time Position Orientation Groundspeed Altitude Reporting Facility
EDT Latitude Longitude Course Direction KTS MPH feet Rate Location/Type
10:01PM 34.2422 -86.2300 97° East 446 513 13,000  Level Atlanta Center
10:02PM -34.4904 148.6442 75° East  Level Estimated
10:02PM 34.2261 -86.0864 98° East 441 507 14,500  Level Atlanta Center
10:03PM 34.2117 -85.9403 97° East 436 502 14,900 180 Climbing Atlanta Center
10:04PM 34.1950 -85.7942 98° East 436 502 14,900  Level Atlanta Center
10:05PM 34.1783 -85.6433 98° East 447 514 14,900  Level Atlanta Center
10:06PM 34.1653 -85.5150 97° East 447 514 14,900 -360 Level Atlanta Center
10:07PM 34.1481 -85.3767 99° East 434 499 14,200 -900 Descending Atlanta Center
10:08PM 34.1328 -85.2383 98° East 415 478 13,200 -1,200 Descending Atlanta Center
10:09PM 34.1131 -85.1078 100° East 401 461 11,800 -1,800 Descending Atlanta Center
10:10PM 34.0933 -84.9919 102° East 364 419 9,700 -2,100 Descending Atlanta Center
10:11PM 34.0753 -84.8864 102° East 327 376 7,600 -2,100 Descending Atlanta Center
10:12PM 34.0572 -84.7786 101° East 305 351 5,600 -1,320 Descending Atlanta Center
10:13PM 34.0431 -84.6881 101° East 279 321 5,000 -300 Descending Atlanta Center
10:14PM 34.0289 -84.6028 101° East 260 299 5,000  Level Atlanta Center
10:15PM 34.0144 -84.5200 102° East 250 288 5,000  Level Atlanta Center
10:16PM 34.0022 -84.4397 100° East 250 288 5,000 -600 Level Atlanta Center
10:17PM 33.9900 -84.3644 101° East 250 288 3,900 -1,080 Descending Atlanta Center
10:18PM 33.9756 -84.2817 102° East 250 288 2,900 -420 Descending Atlanta Center
10:19PM 33.9667 -84.2000 97° East 201 231 3,000 60 Climbing Atlanta TRACON